KCRS/CRS METAR and TAF weather

Enter ICAO airport designator
Station Type Date Time Source
KCRS METAR 2020/04/06 16:53 UTC NOAA

KCRS 061653Z AUTO 14003KT 10SM CLR 22/17 A3005 RMK AO2 SLP173 T02170172


Station Type Date Time Source
KCRS Decoded METAR 2020/04/06 16:53 UTC NOAA

CORSICANA AIRFIELD, TX, United States (KCRS) 32-01N 96-23W 133M
Apr 06, 2020 - 12:53 PM EDT / 2020.04.06 1653 UTC
Wind: from the SE (140 degrees) at 3 MPH (3 KT):0
Visibility: 10 mile(s):0
Sky conditions: clear
Temperature: 71.1 F (21.7 C)
Dew Point: 63.0 F (17.2 C)
Relative Humidity: 75%
Pressure (altimeter): 30.05 in. Hg (1017 hPa)
ob: KCRS 061653Z AUTO 14003KT 10SM CLR 22/17 A3005 RMK AO2 SLP173 T02170172
cycle: 17

Station Type Date Time Source
KCRS TAF UTC NOAA

Error!

Example: see airport list